sensor_id;sensor_type;location;lat;lon;timestamp;pressure;altitude;pressure_sealevel;temperature;humidity
20350;BME280;10332;50.208;18.988;2023-04-06T00:01:49;98383.72;;;2.01;50.84
20350;BME280;10332;50.208;18.988;2023-04-06T00:04:17;98382.09;;;1.98;51.12
20350;BME280;10332;50.208;18.988;2023-04-06T00:06:44;98389.09;;;1.93;51.38
20350;BME280;10332;50.208;18.988;2023-04-06T00:09:12;98382.88;;;1.71;54.06
20350;BME280;10332;50.208;18.988;2023-04-06T00:11:39;98385.63;;;1.65;55.29
20350;BME280;10332;50.208;18.988;2023-04-06T00:14:07;98379.16;;;1.50;56.20
20350;BME280;10332;50.208;18.988;2023-04-06T00:16:34;98383.84;;;1.34;57.36
20350;BME280;10332;50.208;18.988;2023-04-06T00:19:02;98376.31;;;1.28;57.67
20350;BME280;10332;50.208;18.988;2023-04-06T00:21:29;98383.00;;;1.35;56.99
20350;BME280;10332;50.208;18.988;2023-04-06T00:23:58;98385.56;;;1.35;57.48
20350;BME280;10332;50.208;18.988;2023-04-06T00:26:25;98384.84;;;1.30;57.59
20350;BME280;10332;50.208;18.988;2023-04-06T00:28:53;98379.66;;;1.32;57.86
20350;BME280;10332;50.208;18.988;2023-04-06T00:31:20;98387.50;;;1.27;58.43
20350;BME280;10332;50.208;18.988;2023-04-06T00:33:48;98380.50;;;1.32;57.43
20350;BME280;10332;50.208;18.988;2023-04-06T00:36:15;98378.91;;;1.28;58.37
20350;BME280;10332;50.208;18.988;2023-04-06T00:38:43;98377.38;;;1.21;59.13
20350;BME280;10332;50.208;18.988;2023-04-06T00:41:11;98367.28;;;1.13;59.66
20350;BME280;10332;50.208;18.988;2023-04-06T00:43:38;98365.72;;;1.08;59.96
20350;BME280;10332;50.208;18.988;2023-04-06T00:46:06;98364.16;;;1.02;60.90
20350;BME280;10332;50.208;18.988;2023-04-06T00:48:33;98369.63;;;0.89;61.79
20350;BME280;10332;50.208;18.988;2023-04-06T00:51:01;98370.03;;;1.06;61.18
20350;BME280;10332;50.208;18.988;2023-04-06T00:53:28;98365.13;;;0.97;61.67
20350;BME280;10332;50.208;18.988;2023-04-06T00:55:56;98373.53;;;1.03;61.50
20350;BME280;10332;50.208;18.988;2023-04-06T00:58:24;98360.88;;;0.96;62.20
20350;BME280;10332;50.208;18.988;2023-04-06T01:00:52;98361.22;;;0.82;62.89
20350;BME280;10332;50.208;18.988;2023-04-06T01:03:19;98368.44;;;0.68;63.75
20350;BME280;10332;50.208;18.988;2023-04-06T01:05:47;98364.25;;;0.64;64.11
20350;BME280;10332;50.208;18.988;2023-04-06T01:08:14;98367.59;;;0.67;63.89
20350;BME280;10332;50.208;18.988;2023-04-06T01:10:42;98363.94;;;0.76;63.27
20350;BME280;10332;50.208;18.988;2023-04-06T01:13:09;98358.91;;;0.73;63.85
20350;BME280;10332;50.208;18.988;2023-04-06T01:15:37;98357.19;;;0.72;63.92
20350;BME280;10332;50.208;18.988;2023-04-06T01:18:07;98361.47;;;0.71;63.75
20350;BME280;10332;50.208;18.988;2023-04-06T01:20:36;98357.22;;;0.70;64.11
20350;BME280;10332;50.208;18.988;2023-04-06T01:23:04;98364.16;;;0.67;64.29
20350;BME280;10332;50.208;18.988;2023-04-06T01:25:31;98364.97;;;0.69;63.75
20350;BME280;10332;50.208;18.988;2023-04-06T01:27:58;98364.25;;;0.62;65.08
20350;BME280;10332;50.208;18.988;2023-04-06T01:30:26;98359.97;;;0.64;64.75
20350;BME280;10332;50.208;18.988;2023-04-06T01:32:54;98353.91;;;0.67;64.50
20350;BME280;10332;50.208;18.988;2023-04-06T01:35:21;98353.00;;;0.68;64.39
20350;BME280;10332;50.208;18.988;2023-04-06T01:37:49;98356.94;;;0.82;63.37
20350;BME280;10332;50.208;18.988;2023-04-06T01:40:16;98353.84;;;0.68;64.53
20350;BME280;10332;50.208;18.988;2023-04-06T01:42:44;98350.97;;;0.80;63.39
20350;BME280;10332;50.208;18.988;2023-04-06T01:45:11;98348.34;;;0.83;63.02
20350;BME280;10332;50.208;18.988;2023-04-06T01:47:39;98347.38;;;0.88;62.40
20350;BME280;10332;50.208;18.988;2023-04-06T01:50:07;98352.38;;;0.94;62.02
20350;BME280;10332;50.208;18.988;2023-04-06T01:52:34;98350.69;;;0.93;61.95
20350;BME280;10332;50.208;18.988;2023-04-06T01:55:02;98346.34;;;0.95;61.53
20350;BME280;10332;50.208;18.988;2023-04-06T01:57:29;98349.78;;;0.94;61.70
20350;BME280;10332;50.208;18.988;2023-04-06T01:59:57;98348.13;;;0.93;61.39
20350;BME280;10332;50.208;18.988;2023-04-06T02:02:24;98347.13;;;0.97;60.86
20350;BME280;10332;50.208;18.988;2023-04-06T02:04:52;98351.38;;;0.98;60.93
20350;BME280;10332;50.208;18.988;2023-04-06T02:07:20;98346.25;;;0.99;60.87
20350;BME280;10332;50.208;18.988;2023-04-06T02:09:47;98349.66;;;1.00;60.75
20350;BME280;10332;50.208;18.988;2023-04-06T02:12:14;98348.81;;;0.98;60.65
20350;BME280;10332;50.208;18.988;2023-04-06T02:14:42;98345.44;;;0.96;60.77
20350;BME280;10332;50.208;18.988;2023-04-06T02:17:09;98354.00;;;0.96;60.31
20350;BME280;10332;50.208;18.988;2023-04-06T02:19:37;98350.59;;;0.96;60.54
20350;BME280;10332;50.208;18.988;2023-04-06T02:22:04;98343.69;;;0.98;60.27
20350;BME280;10332;50.208;18.988;2023-04-06T02:24:32;98352.28;;;0.97;60.40
20350;BME280;10332;50.208;18.988;2023-04-06T02:26:59;98348.81;;;0.98;60.19
20350;BME280;10332;50.208;18.988;2023-04-06T02:29:27;98347.19;;;0.95;60.36
20350;BME280;10332;50.208;18.988;2023-04-06T02:31:55;98346.28;;;0.96;60.41
20350;BME280;10332;50.208;18.988;2023-04-06T02:34:22;98342.19;;;0.91;60.89
20350;BME280;10332;50.208;18.988;2023-04-06T02:36:49;98342.47;;;0.78;62.13
20350;BME280;10332;50.208;18.988;2023-04-06T02:39:17;98340.88;;;0.74;61.65
20350;BME280;10332;50.208;18.988;2023-04-06T02:41:44;98344.38;;;0.70;62.12
20350;BME280;10332;50.208;18.988;2023-04-06T02:44:12;98332.50;;;0.66;62.13
20350;BME280;10332;50.208;18.988;2023-04-06T02:46:40;98342.63;;;0.72;62.44
20350;BME280;10332;50.208;18.988;2023-04-06T02:49:07;98347.38;;;0.52;63.83
20350;BME280;10332;50.208;18.988;2023-04-06T02:51:35;98351.06;;;0.42;64.51
20350;BME280;10332;50.208;18.988;2023-04-06T02:54:03;98344.41;;;0.33;65.44
20350;BME280;10332;50.208;18.988;2023-04-06T02:56:30;98341.97;;;0.28;65.93
20350;BME280;10332;50.208;18.988;2023-04-06T02:58:58;98349.91;;;0.16;67.48
20350;BME280;10332;50.208;18.988;2023-04-06T03:01:26;98343.06;;;0.18;66.83
20350;BME280;10332;50.208;18.988;2023-04-06T03:03:54;98349.03;;;0.17;66.75
20350;BME280;10332;50.208;18.988;2023-04-06T03:06:21;98348.91;;;0.23;66.20
20350;BME280;10332;50.208;18.988;2023-04-06T03:08:49;98348.84;;;0.26;65.49
20350;BME280;10332;50.208;18.988;2023-04-06T03:11:16;98355.72;;;0.24;65.98
20350;BME280;10332;50.208;18.988;2023-04-06T03:13:44;98353.03;;;0.31;65.50
20350;BME280;10332;50.208;18.988;2023-04-06T03:16:12;98349.88;;;0.19;66.79
20350;BME280;10332;50.208;18.988;2023-04-06T03:18:39;98351.88;;;0.05;68.19
20350;BME280;10332;50.208;18.988;2023-04-06T03:21:07;98350.44;;;-0.07;69.38
20350;BME280;10332;50.208;18.988;2023-04-06T03:23:34;98351.47;;;-0.15;70.25
20350;BME280;10332;50.208;18.988;2023-04-06T03:26:02;98344.66;;;-0.16;70.21
20350;BME280;10332;50.208;18.988;2023-04-06T03:28:30;98341.94;;;-0.09;69.21
20350;BME280;10332;50.208;18.988;2023-04-06T03:30:58;98346.06;;;-0.03;68.99
20350;BME280;10332;50.208;18.988;2023-04-06T03:33:26;98355.72;;;-0.14;69.89
20350;BME280;10332;50.208;18.988;2023-04-06T03:35:56;98358.56;;;-0.28;70.89
20350;BME280;10332;50.208;18.988;2023-04-06T03:38:24;98357.50;;;-0.16;70.30
20350;BME280;10332;50.208;18.988;2023-04-06T03:40:51;98357.53;;;-0.19;70.46
20350;BME280;10332;50.208;18.988;2023-04-06T03:43:18;98355.03;;;-0.22;70.57
20350;BME280;10332;50.208;18.988;2023-04-06T03:45:46;98351.69;;;-0.24;70.83
20350;BME280;10332;50.208;18.988;2023-04-06T03:48:13;98355.94;;;-0.23;70.85
20350;BME280;10332;50.208;18.988;2023-04-06T03:50:41;98360.44;;;-0.35;71.40
20350;BME280;10332;50.208;18.988;2023-04-06T03:53:08;98359.50;;;-0.31;70.85
20350;BME280;10332;50.208;18.988;2023-04-06T03:55:36;98361.03;;;-0.22;70.34
20350;BME280;10332;50.208;18.988;2023-04-06T03:58:03;98359.91;;;-0.10;69.31
20350;BME280;10332;50.208;18.988;2023-04-06T04:00:30;98365.03;;;-0.10;69.27
20350;BME280;10332;50.208;18.988;2023-04-06T04:03:00;98361.59;;;-0.09;69.00
20350;BME280;10332;50.208;18.988;2023-04-06T04:05:29;98365.03;;;-0.10;68.93
20350;BME280;10332;50.208;18.988;2023-04-06T04:07:57;98370.25;;;-0.13;68.90
20350;BME280;10332;50.208;18.988;2023-04-06T04:10:24;98371.00;;;-0.08;68.54
20350;BME280;10332;50.208;18.988;2023-04-06T04:12:52;98367.53;;;-0.06;68.56
20350;BME280;10332;50.208;18.988;2023-04-06T04:15:19;98370.13;;;-0.07;68.26
20350;BME280;10332;50.208;18.988;2023-04-06T04:17:47;98367.59;;;-0.09;68.48
20350;BME280;10332;50.208;18.988;2023-04-06T04:20:16;98365.19;;;-0.16;69.30
20350;BME280;10332;50.208;18.988;2023-04-06T04:22:44;98370.25;;;-0.13;69.62
20350;BME280;10332;50.208;18.988;2023-04-06T04:25:11;98371.06;;;-0.11;69.11
20350;BME280;10332;50.208;18.988;2023-04-06T04:27:39;98371.00;;;-0.10;69.16
20350;BME280;10332;50.208;18.988;2023-04-06T04:30:07;98370.25;;;-0.13;69.98
20350;BME280;10332;50.208;18.988;2023-04-06T04:32:35;98370.16;;;-0.10;70.11
20350;BME280;10332;50.208;18.988;2023-04-06T04:35:02;98369.06;;;0.03;69.05
20350;BME280;10332;50.208;18.988;2023-04-06T04:37:30;98366.41;;;0.06;69.19
20350;BME280;10332;50.208;18.988;2023-04-06T04:39:57;98365.41;;;0.13;68.94
20350;BME280;10332;50.208;18.988;2023-04-06T04:42:25;98365.38;;;0.15;69.02
20350;BME280;10332;50.208;18.988;2023-04-06T04:44:52;98367.00;;;0.17;69.01
20350;BME280;10332;50.208;18.988;2023-04-06T04:47:20;98366.22;;;0.15;69.65
20350;BME280;10332;50.208;18.988;2023-04-06T04:49:47;98376.34;;;0.21;69.50
20350;BME280;10332;50.208;18.988;2023-04-06T04:52:14;98375.34;;;0.28;69.29
20350;BME280;10332;50.208;18.988;2023-04-06T04:54:42;98375.84;;;0.43;68.68
20350;BME280;10332;50.208;18.988;2023-04-06T04:57:09;98373.81;;;0.57;68.48
20350;BME280;10332;50.208;18.988;2023-04-06T04:59:37;98370.91;;;0.71;68.02
20350;BME280;10332;50.208;18.988;2023-04-06T05:02:04;98367.03;;;0.90;67.48
20350;BME280;10332;50.208;18.988;2023-04-06T05:04:32;98369.16;;;1.07;66.53
20350;BME280;10332;50.208;18.988;2023-04-06T05:07:08;98367.16;;;1.18;66.42
20350;BME280;10332;50.208;18.988;2023-04-06T05:09:35;98365.84;;;1.36;65.48
20350;BME280;10332;50.208;18.988;2023-04-06T05:12:03;98360.22;;;1.53;65.46
20350;BME280;10332;50.208;18.988;2023-04-06T05:14:30;98364.94;;;1.68;64.98
20350;BME280;10332;50.208;18.988;2023-04-06T05:16:59;98366.19;;;1.84;64.46
20350;BME280;10332;50.208;18.988;2023-04-06T05:19:26;98362.25;;;2.02;64.14
20350;BME280;10332;50.208;18.988;2023-04-06T05:21:54;98360.91;;;2.18;64.02
20350;BME280;10332;50.208;18.988;2023-04-06T05:24:21;98358.63;;;2.37;63.50
20350;BME280;10332;50.208;18.988;2023-04-06T05:26:49;98368.56;;;2.48;63.06
20350;BME280;10332;50.208;18.988;2023-04-06T05:29:18;98366.84;;;2.48;62.27
20350;BME280;10332;50.208;18.988;2023-04-06T05:31:46;98358.69;;;2.62;62.08
20350;BME280;10332;50.208;18.988;2023-04-06T05:34:14;98361.66;;;2.76;61.90
20350;BME280;10332;50.208;18.988;2023-04-06T05:36:41;98358.69;;;2.89;61.32
20350;BME280;10332;50.208;18.988;2023-04-06T05:39:09;98363.47;;;2.99;61.08
20350;BME280;10332;50.208;18.988;2023-04-06T05:41:37;98365.66;;;3.11;60.59
20350;BME280;10332;50.208;18.988;2023-04-06T05:44:04;98367.06;;;3.20;59.81
20350;BME280;10332;50.208;18.988;2023-04-06T05:46:32;98358.28;;;3.26;59.21
20350;BME280;10332;50.208;18.988;2023-04-06T05:48:59;98349.22;;;3.39;59.13
20350;BME280;10332;50.208;18.988;2023-04-06T05:51:27;98351.25;;;3.54;59.02
20350;BME280;10332;50.208;18.988;2023-04-06T05:53:54;98352.22;;;3.75;58.50
20350;BME280;10332;50.208;18.988;2023-04-06T05:56:22;98358.44;;;3.93;57.82
20350;BME280;10332;50.208;18.988;2023-04-06T05:58:50;98357.69;;;4.13;57.47
20350;BME280;10332;50.208;18.988;2023-04-06T06:01:18;98351.94;;;4.28;57.00
20350;BME280;10332;50.208;18.988;2023-04-06T06:03:45;98346.97;;;4.45;56.43
20350;BME280;10332;50.208;18.988;2023-04-06T06:06:13;98351.41;;;4.64;56.02
20350;BME280;10332;50.208;18.988;2023-04-06T06:08:40;98352.47;;;4.80;55.76
20350;BME280;10332;50.208;18.988;2023-04-06T06:11:08;98356.97;;;4.97;55.62
20350;BME280;10332;50.208;18.988;2023-04-06T06:13:35;98358.78;;;5.15;55.38
20350;BME280;10332;50.208;18.988;2023-04-06T06:16:03;98348.75;;;5.28;54.81
20350;BME280;10332;50.208;18.988;2023-04-06T06:18:32;98352.56;;;5.39;54.06
20350;BME280;10332;50.208;18.988;2023-04-06T06:20:59;98352.88;;;5.52;53.72
20350;BME280;10332;50.208;18.988;2023-04-06T06:23:27;98347.88;;;5.68;53.40
20350;BME280;10332;50.208;18.988;2023-04-06T06:25:54;98351.81;;;5.77;52.50
20350;BME280;10332;50.208;18.988;2023-04-06T06:28:24;98343.81;;;5.81;51.84
20350;BME280;10332;50.208;18.988;2023-04-06T06:30:52;98341.09;;;5.84;51.29
20350;BME280;10332;50.208;18.988;2023-04-06T06:33:19;98338.81;;;5.97;50.49
20350;BME280;10332;50.208;18.988;2023-04-06T06:35:47;98337.91;;;6.17;49.80
20350;BME280;10332;50.208;18.988;2023-04-06T06:38:15;98345.50;;;6.20;48.59
20350;BME280;10332;50.208;18.988;2023-04-06T06:40:43;98341.72;;;6.27;48.14
20350;BME280;10332;50.208;18.988;2023-04-06T06:43:10;98341.88;;;6.24;47.10
20350;BME280;10332;50.208;18.988;2023-04-06T06:45:37;98351.13;;;6.30;46.66
20350;BME280;10332;50.208;18.988;2023-04-06T06:48:05;98346.22;;;6.42;46.21
20350;BME280;10332;50.208;18.988;2023-04-06T06:50:33;98351.72;;;6.53;46.12
20350;BME280;10332;50.208;18.988;2023-04-06T06:53:00;98354.19;;;6.57;44.93
20350;BME280;10332;50.208;18.988;2023-04-06T06:55:28;98341.66;;;6.47;44.55
20350;BME280;10332;50.208;18.988;2023-04-06T06:57:55;98350.03;;;6.52;44.54
20350;BME280;10332;50.208;18.988;2023-04-06T07:00:23;98353.75;;;7.00;43.93
20350;BME280;10332;50.208;18.988;2023-04-06T07:02:50;98353.53;;;7.39;43.45
20350;BME280;10332;50.208;18.988;2023-04-06T07:05:18;98352.47;;;7.77;42.53
20350;BME280;10332;50.208;18.988;2023-04-06T07:07:55;98355.47;;;8.18;41.65
20350;BME280;10332;50.208;18.988;2023-04-06T07:10:23;98349.25;;;8.52;40.34
20350;BME280;10332;50.208;18.988;2023-04-06T07:12:51;98357.00;;;8.99;38.74
20350;BME280;10332;50.208;18.988;2023-04-06T07:15:18;98358.06;;;9.84;37.61
20350;BME280;10332;50.208;18.988;2023-04-06T07:17:45;98351.97;;;10.94;35.67
20350;BME280;10332;50.208;18.988;2023-04-06T07:20:14;98348.28;;;12.00;33.77
20350;BME280;10332;50.208;18.988;2023-04-06T07:22:43;98349.22;;;12.72;31.94
20350;BME280;10332;50.208;18.988;2023-04-06T07:25:12;98358.69;;;13.10;31.59
20350;BME280;10332;50.208;18.988;2023-04-06T07:27:39;98357.44;;;14.07;29.39
20350;BME280;10332;50.208;18.988;2023-04-06T07:30:08;98348.22;;;15.84;28.25
20350;BME280;10332;50.208;18.988;2023-04-06T07:32:35;98346.69;;;18.42;25.74
20350;BME280;10332;50.208;18.988;2023-04-06T07:35:03;98349.81;;;21.48;22.99
20350;BME280;10332;50.208;18.988;2023-04-06T07:37:31;98349.25;;;23.03;20.93
20350;BME280;10332;50.208;18.988;2023-04-06T07:39:58;98348.22;;;24.17;19.99
20350;BME280;10332;50.208;18.988;2023-04-06T07:42:26;98344.38;;;25.70;18.67
20350;BME280;10332;50.208;18.988;2023-04-06T07:44:53;98344.91;;;25.38;18.10
20350;BME280;10332;50.208;18.988;2023-04-06T07:47:20;98351.53;;;26.32;17.69
20350;BME280;10332;50.208;18.988;2023-04-06T07:49:48;98348.56;;;27.10;16.97
20350;BME280;10332;50.208;18.988;2023-04-06T07:52:15;98352.09;;;27.37;16.85
20350;BME280;10332;50.208;18.988;2023-04-06T07:54:43;98344.47;;;27.80;16.87
20350;BME280;10332;50.208;18.988;2023-04-06T07:57:11;98357.03;;;26.18;18.46
20350;BME280;10332;50.208;18.988;2023-04-06T07:59:38;98348.28;;;22.64;19.65
20350;BME280;10332;50.208;18.988;2023-04-06T08:02:06;98352.59;;;23.28;19.02
20350;BME280;10332;50.208;18.988;2023-04-06T08:04:35;98349.09;;;20.12;21.49
20350;BME280;10332;50.208;18.988;2023-04-06T08:07:03;98347.13;;;19.37;22.33
20350;BME280;10332;50.208;18.988;2023-04-06T08:09:30;98354.94;;;17.26;23.64
20350;BME280;10332;50.208;18.988;2023-04-06T08:11:58;98350.22;;;16.32;24.45
20350;BME280;10332;50.208;18.988;2023-04-06T08:14:26;98355.84;;;15.03;25.92
20350;BME280;10332;50.208;18.988;2023-04-06T08:16:53;98350.03;;;15.63;25.76
20350;BME280;10332;50.208;18.988;2023-04-06T08:19:21;98346.63;;;18.97;23.61
20350;BME280;10332;50.208;18.988;2023-04-06T08:21:48;98344.69;;;18.27;23.90
20350;BME280;10332;50.208;18.988;2023-04-06T08:24:16;98344.44;;;21.64;21.10
20350;BME280;10332;50.208;18.988;2023-04-06T08:26:43;98331.94;;;25.35;18.00
20350;BME280;10332;50.208;18.988;2023-04-06T08:29:10;98331.94;;;23.82;18.15
20350;BME280;10332;50.208;18.988;2023-04-06T08:31:38;98336.88;;;23.33;19.05
20350;BME280;10332;50.208;18.988;2023-04-06T08:34:06;98342.47;;;22.38;19.90
20350;BME280;10332;50.208;18.988;2023-04-06T08:36:36;98336.94;;;19.68;21.06
20350;BME280;10332;50.208;18.988;2023-04-06T08:39:03;98343.94;;;18.34;22.46
20350;BME280;10332;50.208;18.988;2023-04-06T08:41:30;98340.38;;;16.93;24.01
20350;BME280;10332;50.208;18.988;2023-04-06T08:44:02;98338.97;;;16.20;25.10
20350;BME280;10332;50.208;18.988;2023-04-06T08:46:31;98339.09;;;16.18;25.81
20350;BME280;10332;50.208;18.988;2023-04-06T08:49:01;98337.84;;;15.61;26.20
20350;BME280;10332;50.208;18.988;2023-04-06T08:51:30;98331.16;;;15.57;26.65
20350;BME280;10332;50.208;18.988;2023-04-06T08:54:00;98337.19;;;15.07;26.66
20350;BME280;10332;50.208;18.988;2023-04-06T08:56:28;98338.66;;;14.67;27.50
20350;BME280;10332;50.208;18.988;2023-04-06T08:58:57;98337.03;;;14.87;27.77
20350;BME280;10332;50.208;18.988;2023-04-06T09:01:28;98335.03;;;15.00;28.12
20350;BME280;10332;50.208;18.988;2023-04-06T09:03:58;98328.59;;;14.72;28.72
20350;BME280;10332;50.208;18.988;2023-04-06T09:06:27;98330.19;;;14.41;28.22
20350;BME280;10332;50.208;18.988;2023-04-06T09:08:55;98332.13;;;14.17;29.27
20350;BME280;10332;50.208;18.988;2023-04-06T09:11:23;98330.44;;;14.27;29.67
20350;BME280;10332;50.208;18.988;2023-04-06T09:13:54;98332.97;;;14.17;28.72
20350;BME280;10332;50.208;18.988;2023-04-06T09:16:23;98326.66;;;13.98;29.49
20350;BME280;10332;50.208;18.988;2023-04-06T09:18:50;98322.09;;;13.55;30.32
20350;BME280;10332;50.208;18.988;2023-04-06T09:21:19;98328.34;;;13.87;30.19
20350;BME280;10332;50.208;18.988;2023-04-06T09:24:01;98321.38;;;13.42;29.42
20350;BME280;10332;50.208;18.988;2023-04-06T09:26:29;98323.53;;;13.48;29.45
20350;BME280;10332;50.208;18.988;2023-04-06T09:28:58;98319.97;;;14.16;30.03
20350;BME280;10332;50.208;18.988;2023-04-06T09:31:31;98319.44;;;14.56;30.01
20350;BME280;10332;50.208;18.988;2023-04-06T09:34:02;98309.84;;;16.81;27.86
20350;BME280;10332;50.208;18.988;2023-04-06T09:36:31;98298.81;;;17.24;27.06
20350;BME280;10332;50.208;18.988;2023-04-06T09:39:04;98303.69;;;17.85;25.10
20350;BME280;10332;50.208;18.988;2023-04-06T09:41:34;98294.69;;;19.92;23.62
20350;BME280;10332;50.208;18.988;2023-04-06T09:44:10;98298.97;;;21.02;22.80
20350;BME280;10332;50.208;18.988;2023-04-06T09:46:40;98293.41;;;22.32;21.42
20350;BME280;10332;50.208;18.988;2023-04-06T09:49:28;98302.97;;;23.64;20.67
20350;BME280;10332;50.208;18.988;2023-04-06T09:52:01;98299.06;;;24.41;20.47
20350;BME280;10332;50.208;18.988;2023-04-06T09:54:30;98299.00;;;24.34;19.93
20350;BME280;10332;50.208;18.988;2023-04-06T10:00:07;98284.69;;;26.46;18.39
20350;BME280;10332;50.208;18.988;2023-04-06T10:03:14;98287.44;;;25.83;17.22
20350;BME280;10332;50.208;18.988;2023-04-06T10:05:57;98288.44;;;23.96;19.29
20350;BME280;10332;50.208;18.988;2023-04-06T10:08:28;98292.03;;;25.12;18.77
20350;BME280;10332;50.208;18.988;2023-04-06T10:11:00;98284.25;;;26.42;17.84
20350;BME280;10332;50.208;18.988;2023-04-06T10:13:27;98279.47;;;27.71;16.89
20350;BME280;10332;50.208;18.988;2023-04-06T10:15:57;98285.66;;;27.79;16.45
20350;BME280;10332;50.208;18.988;2023-04-06T10:18:27;98285.88;;;28.73;15.81
20350;BME280;10332;50.208;18.988;2023-04-06T10:21:09;98289.94;;;30.44;15.13
20350;BME280;10332;50.208;18.988;2023-04-06T10:23:59;98272.59;;;31.00;14.72
20350;BME280;10332;50.208;18.988;2023-04-06T10:26:27;98271.53;;;31.78;14.57
20350;BME280;10332;50.208;18.988;2023-04-06T10:28:55;98266.06;;;27.52;16.18
20350;BME280;10332;50.208;18.988;2023-04-06T10:31:29;98270.44;;;25.35;17.48
20350;BME280;10332;50.208;18.988;2023-04-06T10:34:01;98267.75;;;24.71;17.87
20350;BME280;10332;50.208;18.988;2023-04-06T10:36:33;98266.41;;;24.24;18.00
20350;BME280;10332;50.208;18.988;2023-04-06T10:39:05;98260.16;;;23.28;18.65
20350;BME280;10332;50.208;18.988;2023-04-06T10:41:42;98255.78;;;22.13;20.02
20350;BME280;10332;50.208;18.988;2023-04-06T10:44:22;98257.47;;;20.52;20.79
20350;BME280;10332;50.208;18.988;2023-04-06T10:46:55;98259.94;;;19.95;21.16
20350;BME280;10332;50.208;18.988;2023-04-06T10:49:27;98253.34;;;18.78;22.08
20350;BME280;10332;50.208;18.988;2023-04-06T10:51:56;98257.31;;;17.73;22.97
20350;BME280;10332;50.208;18.988;2023-04-06T10:54:26;98258.44;;;16.95;23.98
20350;BME280;10332;50.208;18.988;2023-04-06T10:56:54;98260.09;;;15.88;25.09
20350;BME280;10332;50.208;18.988;2023-04-06T10:59:23;98249.72;;;15.56;25.41
20350;BME280;10332;50.208;18.988;2023-04-06T11:01:52;98257.34;;;14.55;26.82
20350;BME280;10332;50.208;18.988;2023-04-06T11:04:22;98257.94;;;14.04;26.99
20350;BME280;10332;50.208;18.988;2023-04-06T11:06:51;98260.56;;;13.92;27.31
20350;BME280;10332;50.208;18.988;2023-04-06T11:09:36;98260.81;;;13.33;27.80
20350;BME280;10332;50.208;18.988;2023-04-06T11:12:04;98263.56;;;13.54;27.60
20350;BME280;10332;50.208;18.988;2023-04-06T11:14:32;98251.63;;;13.95;27.46
20350;BME280;10332;50.208;18.988;2023-04-06T11:16:59;98257.91;;;14.15;27.27
20350;BME280;10332;50.208;18.988;2023-04-06T11:19:27;98254.50;;;14.46;26.84
20350;BME280;10332;50.208;18.988;2023-04-06T11:21:55;98245.41;;;14.51;26.81
20350;BME280;10332;50.208;18.988;2023-04-06T11:24:26;98252.28;;;14.31;27.44
20350;BME280;10332;50.208;18.988;2023-04-06T11:26:58;98241.16;;;14.70;26.82
20350;BME280;10332;50.208;18.988;2023-04-06T11:29:29;98245.34;;;15.15;26.10
20350;BME280;10332;50.208;18.988;2023-04-06T11:32:02;98248.22;;;15.12;26.23
20350;BME280;10332;50.208;18.988;2023-04-06T11:34:33;98249.25;;;15.20;26.07
20350;BME280;10332;50.208;18.988;2023-04-06T11:37:07;98246.03;;;15.17;26.12
20350;BME280;10332;50.208;18.988;2023-04-06T11:39:50;98232.34;;;14.60;26.68
20350;BME280;10332;50.208;18.988;2023-04-06T11:42:29;98228.13;;;14.69;26.46
20350;BME280;10332;50.208;18.988;2023-04-06T11:44:58;98234.78;;;14.73;26.66
20350;BME280;10332;50.208;18.988;2023-04-06T11:47:33;98226.44;;;14.04;27.40
20350;BME280;10332;50.208;18.988;2023-04-06T11:50:13;98220.50;;;13.79;27.63
20350;BME280;10332;50.208;18.988;2023-04-06T11:52:42;98222.19;;;13.69;27.67
20350;BME280;10332;50.208;18.988;2023-04-06T11:55:17;98229.72;;;13.51;28.21
20350;BME280;10332;50.208;18.988;2023-04-06T11:57:45;98221.31;;;13.13;28.45
20350;BME280;10332;50.208;18.988;2023-04-06T12:00:13;98225.28;;;12.83;28.73
20350;BME280;10332;50.208;18.988;2023-04-06T12:02:46;98230.13;;;12.65;29.23
20350;BME280;10332;50.208;18.988;2023-04-06T12:05:14;98226.03;;;12.50;29.57
20350;BME280;10332;50.208;18.988;2023-04-06T12:07:42;98219.16;;;12.25;29.75
20350;BME280;10332;50.208;18.988;2023-04-06T12:10:10;98223.66;;;11.99;29.90
20350;BME280;10332;50.208;18.988;2023-04-06T12:12:37;98217.50;;;11.87;30.17
20350;BME280;10332;50.208;18.988;2023-04-06T12:15:06;98220.44;;;11.83;30.12
20350;BME280;10332;50.208;18.988;2023-04-06T12:17:33;98219.81;;;11.66;30.70
20350;BME280;10332;50.208;18.988;2023-04-06T12:20:01;98214.41;;;11.57;30.71
20350;BME280;10332;50.208;18.988;2023-04-06T12:22:44;98218.84;;;11.31;31.43
20350;BME280;10332;50.208;18.988;2023-04-06T12:25:11;98230.03;;;11.07;31.53
20350;BME280;10332;50.208;18.988;2023-04-06T12:27:39;98214.38;;;11.07;31.56
20350;BME280;10332;50.208;18.988;2023-04-06T12:30:07;98219.78;;;11.04;31.32
20350;BME280;10332;50.208;18.988;2023-04-06T12:32:35;98208.34;;;10.67;31.82
20350;BME280;10332;50.208;18.988;2023-04-06T12:35:03;98208.13;;;10.58;32.06
20350;BME280;10332;50.208;18.988;2023-04-06T12:37:30;98209.16;;;10.42;32.68
20350;BME280;10332;50.208;18.988;2023-04-06T12:39:58;98202.69;;;10.48;32.78
20350;BME280;10332;50.208;18.988;2023-04-06T12:42:26;98197.25;;;10.38;33.27
20350;BME280;10332;50.208;18.988;2023-04-06T12:44:53;98206.50;;;10.03;33.71
20350;BME280;10332;50.208;18.988;2023-04-06T12:47:21;98197.44;;;9.67;35.40
20350;BME280;10332;50.208;18.988;2023-04-06T12:49:49;98193.53;;;9.74;35.23
20350;BME280;10332;50.208;18.988;2023-04-06T12:52:17;98199.69;;;9.59;35.92
20350;BME280;10332;50.208;18.988;2023-04-06T12:54:44;98200.63;;;9.58;36.44
20350;BME280;10332;50.208;18.988;2023-04-06T12:57:12;98198.38;;;9.66;36.38
20350;BME280;10332;50.208;18.988;2023-04-06T12:59:43;98196.91;;;9.62;36.70
20350;BME280;10332;50.208;18.988;2023-04-06T13:02:12;98200.09;;;9.24;38.23
20350;BME280;10332;50.208;18.988;2023-04-06T13:04:39;98194.44;;;9.32;37.86
20350;BME280;10332;50.208;18.988;2023-04-06T13:07:07;98198.59;;;9.34;37.48